Flight Track Log - Related Links

Times and Time Zones

All times are in EDT time to prevent confusion due to time zone crossing. See the GLA182 flight status page for this flight to view local times or setup timezone preferences in your user account.

Time Position Orientation Groundspeed Altitude Reporting Facility
EDT Latitude Longitude Course Direction KTS MPH feet Rate Location/Type
Fri 08:40:22 AM 44.8833 -93.1667 85° East 170 196 2,200  Level Minneapolis TRACON
Fri 08:40:58 AM 44.8858 -93.1222 85° East 189 217 3,200 1,979 Climbing Minneapolis Center
Fri 08:41:59 AM 44.8858 -93.0378 90° East 213 245 5,400 1,854 Climbing Minneapolis Center
Fri 08:43:01 AM 44.9342 -93.0089 23° Northeast 209 241 7,000 1,113 Climbing Minneapolis Center
Fri 08:44:03 AM 44.9956 -93.0114 358° North 225 259 7,700 1,220 Climbing Minneapolis Center
Fri 08:45:04 AM 45.0467 -93.0414 337° Northwest 207 238 9,500 1,707 Climbing Minneapolis Center
Fri 08:46:06 AM 45.0625 -93.1092 288° West 191 220 11,200 1,220 Climbing Minneapolis Center
Fri 08:47:07 AM 45.0686 -93.1842 277° West 196 226 12,000 439 Climbing Minneapolis Center
Fri 08:48:09 AM 45.0756 -93.2903 275° West 231 266 12,100 98 Climbing Minneapolis Center
Fri 08:49:10 AM 45.0833 -93.3825 277° West 239 275 12,200  Climbing Minneapolis Center
Fri 08:50:12 AM 45.0922 -93.4761 278° West 242 278 12,100 -49 Descending Minneapolis Center
Fri 08:51:13 AM 45.0983 -93.5703 275° West 241 277 12,100  Level Minneapolis Center
Fri 08:52:15 AM 45.0961 -93.6644 268° West 241 277 12,100 -49 Level Minneapolis Center
Fri 08:53:16 AM 45.0939 -93.7600 268° West 245 282 12,000 44 Descending Minneapolis Center
Fri 08:54:30 AM 45.0917 -93.8728 268° West 241 277 12,200 44 Climbing Minneapolis Center
Fri 08:55:32 AM 45.0878 -93.9869 267° West 246 283 12,100 98 Descending Minneapolis Center
Fri 08:56:33 AM 45.0858 -94.0825 268° West 247 284 12,400 683 Climbing Minneapolis Center
Fri 08:57:35 AM 45.0822 -94.1697 267° West 224 258 13,500 1,268 Climbing Minneapolis Center
Fri 08:58:36 AM 45.0767 -94.2544 265° West 217 250 15,000 1,171 Climbing Minneapolis Center
Fri 08:59:38 AM 45.0717 -94.3389 265° West 217 250 15,900 488 Climbing Minneapolis Center
Fri 09:00:39 AM 45.0622 -94.4328 262° West 241 277 16,000 49 Climbing Minneapolis Center
Fri 09:01:41 AM 45.0483 -94.5544 261° West 260 299 16,000  Level Minneapolis Center
Fri 09:02:42 AM 45.0431 -94.6556 266° West 253 291 16,000  Level Minneapolis Center
Fri 09:03:44 AM 45.0431 -94.7522 270° West 248 285 16,000 49 Level Minneapolis Center
Fri 09:04:45 AM 45.0425 -94.8478 270° West 245 282 16,100  Climbing Minneapolis Center
Fri 09:05:47 AM 45.0411 -94.9428 269° West 243 280 16,000 -49 Descending Minneapolis Center
Fri 09:06:48 AM 45.0406 -95.0372 270° West 242 278 16,000 49 Level Minneapolis Center
Fri 09:07:50 AM 45.0425 -95.1322 272° West 242 278 16,100 49 Climbing Minneapolis Center
Fri 09:08:51 AM 45.0403 -95.2278 268° West 244 281 16,100 -49 Level Minneapolis Center
Fri 09:09:53 AM 45.0378 -95.3419 268° West 243 280 16,000  Descending Minneapolis Center
Fri 09:10:54 AM 45.0375 -95.4381 270° West 245 282 16,100  Climbing Minneapolis Center
Fri 09:12:08 AM 45.0364 -95.5511 269° West 243 280 16,000  Descending Minneapolis Center
Fri 09:13:10 AM 45.0344 -95.6464 268° West 243 280 16,100  Climbing Minneapolis Center
Fri 09:14:11 AM 45.0336 -95.7403 269° West 241 277 16,000 -49 Descending Minneapolis Center
Fri 09:15:13 AM 45.0297 -95.8350 267° West 242 278 16,000  Level Minneapolis Center
Fri 09:16:14 AM 45.0264 -95.9297 267° West 242 278 16,000 -197 Level Minneapolis Center
Fri 09:17:15 AM 45.0239 -96.0047 267° West 241 277 15,600 -1,122 Descending Minneapolis Center
Fri 09:18:17 AM 45.0239 -96.1325 270° West 235 270 13,700 -1,512 Descending Minneapolis Center
Fri 09:19:18 AM 45.0244 -96.2228 271° West 232 267 12,500 -1,220 Descending Minneapolis Center
Fri 09:20:20 AM 45.0225 -96.3094 268° West 226 260 11,200 -1,171 Descending Minneapolis Center
Fri 09:21:21 AM 45.0175 -96.3978 265° West 226 260 10,100 -1,024 Descending Minneapolis Center
Fri 09:22:23 AM 45.0156 -96.4675 268° West 226 260 9,100 -1,073 Descending Minneapolis Center
Fri 09:23:24 AM 45.0119 -96.5703 267° West 223 257 7,900 -1,033 Descending Minneapolis Center
Fri 09:24:25 AM 45.0072 -96.6347 264° West 218 251 7,000 -885 Descending Minneapolis Center

Login

Don't have an account? Register now (free) for customized features, flight alerts, and more!